West Mansfield, Ohio
Current Conditions -  °F | °C
As of 3:10 PM on Friday 31 Oct 2014 (Local Time) from KEDJ Reporting Station
Broken Clouds Broken Clouds  
Wind Chill: 30°   Ceiling: 900
Heat Index: 37°   Visibility: 5mi
Dew Point: 37°   Wind: 12mph
Humidity: 100%   Direction: 310°NW
Pressure: 29.88"   Gusts: 17mph
Location:  40.4°N, 83.55°W
Report Text: KEDJ 311910Z AUTO 31010G15KT 5SM BKN009 BKN017 03/03 A2988 RMK AO1 P0001
Loading
Personal Weather Stations






























Interactive Weather Map New forecast layout! Learn more

10-Day Weather Forecast

Advertisements
Track Severe Weather on mobile